Flight Track Log - Related Links

Times and Time Zones

All times are in EDT time to prevent confusion due to time zone crossing. See the AAY876 flight status page for this flight to view local times or setup timezone preferences in your user account.

Time Position Orientation Groundspeed Altitude Reporting Facility
EDT Latitude Longitude Course Direction KTS MPH feet Rate Location/Type
Fri 04:18:09 PM 27.9333 -82.7000 348° North 164 189 900  Level Tampa TRACON
Fri 04:19:33 PM 28.0000 -82.6667 24° Northeast 253 291 2,200 1,792 Climbing Tampa TRACON
Fri 04:20:33 PM 28.0833 -82.6500 10° North 277 319 5,200 2,692 Climbing Tampa TRACON
Fri 04:22:38 PM 28.2378 -82.6900 347° North 279 321 10,500 2,086 Climbing Miami Center
Fri 04:23:00 PM 28.8987 -82.8913 348° North  Level FlightAware Approximate
Fri 04:23:40 PM 28.3225 -82.7178 344° North 309 356 11,700  Level Miami Center
Fri 04:24:42 PM 28.4200 -82.7408 348° North 346 398 13,800 2,032 Climbing Miami Center
Fri 04:25:44 PM 28.5203 -82.7653 348° North 361 415 15,900 1,839 Climbing Miami Center
Fri 04:26:46 PM 28.6308 -82.7944 347° North 379 436 17,600 1,869 Climbing Miami Center
Fri 04:27:46 PM 28.7383 -82.8239 346° North 376 433 19,700 2,000 Climbing Jacksonville Center
Fri 04:28:46 PM 28.8428 -82.8500 348° North 376 433 21,600 1,300 Climbing Jacksonville Center
Fri 04:29:46 PM 28.9514 -82.8783 347° North 376 433 22,300 1,050 Climbing Jacksonville Center
Fri 04:30:46 PM 29.0661 -82.9092 347° North 395 455 23,700 1,350 Climbing Jacksonville Center
Fri 04:31:46 PM 29.1831 -82.9400 347° North 412 474 25,000 1,400 Climbing Jacksonville Center
Fri 04:32:46 PM 29.3000 -82.9711 347° North 422 486 26,500 1,300 Climbing Jacksonville Center
Fri 04:33:46 PM 29.4189 -83.0022 347° North 427 491 27,600 1,100 Climbing Jacksonville Center
Fri 04:34:46 PM 29.5442 -83.0358 347° North 440 506 28,700 1,000 Climbing Jacksonville Center
Fri 04:35:46 PM 29.6483 -83.0694 344° North 442 509 29,600 952 Climbing Jacksonville Center
Fri 04:42:26 PM 30.4265 -83.3819 347° North 426 490 36,000 814 Climbing FlightAware ADS-B (KONZ)
Fri 04:43:38 PM 30.5641 -83.4178 348° North 426 490 36,000  Level FlightAware ADS-B (KONZ)
Fri 04:44:08 PM 30.6220 -83.4327 348° North 425 489 36,000  Level FlightAware ADS-B (KONZ)
Fri 04:44:48 PM 30.6949 -83.4514 348° North 425 489 36,000  Level FlightAware ADS-B (KONZ)
Fri 04:45:41 PM 30.8018 -83.4781 348° North 427 491 36,000  Level FlightAware ADS-B (KONZ)
Fri 04:47:03 PM 30.9591 -83.5243 344° North 431 496 36,000 38 Level FlightAware ADS-B (KONZ)
Fri 04:48:17 PM 31.1032 -83.5726 341° North 430 495 36,100  Climbing FlightAware ADS-B (KONZ)
Fri 04:48:57 PM 31.1717 -83.6116 329° Northwest 428 493 36,000 -68 Descending FlightAware ADS-B (KONZ)
Fri 04:49:45 PM 31.2549 -83.6687 330° Northwest 428 493 36,000  Level FlightAware ADS-B (KONZ)
Fri 04:50:39 PM 31.3433 -83.7253 330° Northwest 428 493 36,000  Level Atlanta Center
Fri 04:51:39 PM 31.4417 -83.7736 337° Northwest 428 493 36,000  Level Atlanta Center
Fri 04:52:39 PM 31.5564 -83.8122 344° North 428 493 36,000  Level Atlanta Center
Fri 04:53:39 PM 31.6942 -83.7997 North 428 493 36,000  Level Atlanta Center
Fri 04:54:39 PM 31.8153 -83.7872 North 428 493 36,000  Level Atlanta Center
Fri 04:55:39 PM 31.9489 -83.7842 North 456 525 36,000  Level Atlanta Center
Fri 04:56:39 PM 32.0719 -83.7839 360° North 456 525 36,000  Level Atlanta Center
Fri 04:57:39 PM 32.1972 -83.8008 353° North 456 525 36,000  Level Atlanta Center
Fri 04:58:39 PM 32.3244 -83.8225 352° North 456 525 36,000  Level Atlanta Center
Fri 04:59:39 PM 32.4519 -83.8419 353° North 461 531 36,000  Level Atlanta Center
Fri 05:00:39 PM 32.5772 -83.8664 351° North 461 531 36,000  Level Atlanta Center
Fri 05:01:39 PM 32.7003 -83.9006 347° North 461 531 36,000  Level Atlanta Center
Fri 05:02:39 PM 32.8214 -83.9547 339° North 461 531 36,000  Level Atlanta Center
Fri 05:03:39 PM 32.9447 -83.9967 344° North 461 531 36,000  Level Atlanta Center
Fri 05:04:39 PM 33.0469 -84.0214 349° North 461 531 36,000  Level Atlanta Center
Fri 05:05:39 PM 33.1828 -84.0489 350° North 455 524 36,000  Level Atlanta Center
Fri 05:06:39 PM 33.3100 -84.0686 353° North 450 518 36,000  Level Atlanta Center
Fri 05:11:34 PM 34.0636 -84.1932 352° North 454 522 36,000  Level FlightAware ADS-B (KDZJ)
Fri 05:12:13 PM 34.1454 -84.2071 352° North 454 522 36,000  Level FlightAware ADS-B (KDZJ)
Fri 05:12:54 PM 34.2322 -84.2218 352° North 453 521 36,000  Level FlightAware ADS-B (KDZJ)
Fri 05:13:34 PM 34.3179 -84.2366 352° North 458 527 36,000 225 Level FlightAware ADS-B (KDZJ)
Fri 05:14:14 PM 34.4002 -84.2528 350° North 458 527 36,300 675 Climbing FlightAware ADS-B (KDZJ)
Fri 05:14:54 PM 34.4838 -84.2719 350° North 456 525 36,900 538 Climbing FlightAware ADS-B (KDZJ)
Fri 05:15:32 PM 34.5625 -84.2897 349° North 458 527 37,000 76 Climbing FlightAware ADS-B (KDZJ)
Fri 05:16:13 PM 34.6465 -84.3216 340° North 449 517 37,000  Level FlightAware ADS-B (KDZJ)
Fri 05:16:54 PM 34.7265 -84.3561 340° North 446 513 37,000  Level FlightAware ADS-B (KDZJ)
Fri 05:17:32 PM 34.8034 -84.3888 340° North 446 513 37,000  Level FlightAware ADS-B (KDZJ)
Fri 05:18:13 PM 34.8848 -84.4236 340° North 447 514 37,000  Level FlightAware ADS-B (KDZJ)
Fri 05:18:53 PM 34.9644 -84.4580 340° North 446 513 37,000  Level FlightAware ADS-B (KDZJ)
Fri 05:19:33 PM 35.0436 -84.4921 340° North 447 514 37,000  Level FlightAware ADS-B (KDZJ)
Fri 05:20:13 PM 35.1235 -84.5267 340° North 449 517 37,000 74 Level FlightAware ADS-B (KDZJ)
Fri 05:20:54 PM 35.2042 -84.5618 340° North 458 527 37,100 444 Climbing FlightAware ADS-B (KDZJ)
Fri 05:21:34 PM 35.2829 -84.5960 340° North 446 513 37,600 362 Climbing FlightAware ADS-B (KDZJ)
Fri 05:23:23 PM 35.3950 -84.6448 340° North 448 516 38,000 84 Climbing FlightAware ADS-B (KMDQ)
Fri 05:26:20 PM 35.7238 -84.8569 329° Northwest 448 516 38,000  Level FlightAware ADS-B (KMDQ)
Fri 05:27:38 PM 35.8689 -84.9476 338° Northwest 448 516 38,000  Level FlightAware ADS-B (KMDQ)
Fri 05:29:22 PM 36.0728 -85.0329 340° North 449 517 38,000  Level FlightAware ADS-B (KMDQ)
Fri 05:30:03 PM 36.1518 -85.0674 341° North 450 518 38,000  Level FlightAware ADS-B (KMDQ)
Fri 05:31:21 PM 36.2889 -85.1264 341° North 451 519 38,000  Level Indianapolis Center
Fri 05:32:23 PM 36.4081 -85.1764 341° North 451 519 38,000  Level Indianapolis Center
Fri 05:33:25 PM 36.5264 -85.2292 340° North 451 519 38,000  Level Indianapolis Center
Fri 05:34:27 PM 36.6678 -85.2892 341° North 450 518 38,000  Level Indianapolis Center
Fri 05:35:29 PM 36.7842 -85.3403 341° North 448 516 38,000  Level Indianapolis Center
Fri 05:36:30 PM 36.9033 -85.3914 341° North 448 516 38,000  Level Indianapolis Center
Fri 05:37:32 PM 37.0219 -85.4433 341° North 449 517 38,000  Level Indianapolis Center
Fri 05:38:34 PM 37.1539 -85.4989 341° North 449 517 38,000  Level Indianapolis Center
Fri 05:39:36 PM 37.2744 -85.5333 347° North 450 518 38,000  Level Indianapolis Center
Fri 05:40:38 PM 37.4011 -85.5644 349° North 461 531 38,000  Level Indianapolis Center
Fri 05:41:39 PM 37.5253 -85.5919 350° North 459 528 38,000  Level Indianapolis Center
Fri 05:42:41 PM 37.6511 -85.6147 352° North 456 525 38,000  Level Indianapolis Center
Fri 05:43:43 PM 37.7753 -85.6322 354° North 451 519 38,000  Level Indianapolis Center
Fri 05:44:44 PM 37.9242 -85.6489 355° North 451 519 38,000  Level Indianapolis Center
Fri 05:45:46 PM 38.0456 -85.6786 349° North 448 516 38,000 -48 Level Indianapolis Center
Fri 05:46:48 PM 38.1614 -85.7333 340° North 447 514 37,900  Descending Indianapolis Center
Fri 05:47:50 PM 38.2817 -85.7822 342° North 447 514 38,000 49 Climbing Indianapolis Center
Fri 05:48:51 PM 38.4025 -85.8356 341° North 455 524 38,000  Level Indianapolis Center
Fri 05:49:53 PM 38.5189 -85.9014 336° Northwest 456 525 38,000  Level Indianapolis Center
Fri 05:50:55 PM 38.6342 -85.9664 336° Northwest 455 524 38,000  Level Indianapolis Center
Fri 05:51:56 PM 38.7511 -86.0303 337° Northwest 455 524 38,000  Level Indianapolis Center
Fri 05:52:58 PM 38.8900 -86.1078 337° Northwest 455 524 38,000  Level Indianapolis Center
Fri 05:54:00 PM 38.9889 -86.1856 329° Northwest 451 519 38,000  Level Indianapolis Center
Fri 05:54:22 PM 39.0413 -86.2306 328° Northwest 38,000  Level FlightAware ADS-B
Fri 05:55:02 PM 39.0928 -86.2744 326° Northwest 449 517 38,000  Level Indianapolis Center
Fri 05:56:03 PM 39.1981 -86.3625 327° Northwest 449 517 38,000  Level Indianapolis Center
Fri 05:57:05 PM 39.3036 -86.4506 327° Northwest 449 517 38,000  Level Indianapolis Center
Fri 05:58:07 PM 39.4097 -86.5378 328° Northwest 449 517 38,000  Level Indianapolis Center
Fri 06:03:53 PM 40.1208 -86.9072 344° North 467 537 38,000  Level FlightAware ADS-B
Fri 06:04:35 PM 40.2041 -86.9379 344° North 467 537 38,000  Level FlightAware ADS-B
Fri 06:05:12 PM 40.2841 -86.9675 344° North 464 534 38,000  Level FlightAware ADS-B
Fri 06:05:33 PM 40.3251 -86.9894 329° Northwest 452 520 38,000  Level FlightAware ADS-B
Fri 06:06:36 PM 40.4262 -87.0946 321° Northwest 443 510 38,000 -294 Level FlightAware ADS-B
Fri 06:07:15 PM 40.4857 -87.1578 321° Northwest 436 502 37,500 -835 Descending FlightAware ADS-B
Fri 06:07:55 PM 40.5514 -87.2281 321° Northwest 437 503 36,900 -943 Descending FlightAware ADS-B
Fri 06:08:25 PM 40.5981 -87.2784 321° Northwest 440 506 36,400 -943 Descending FlightAware ADS-B
Fri 06:09:05 PM 40.6611 -87.3462 321° Northwest 445 512 35,800 -943 Descending FlightAware ADS-B
Fri 06:09:35 PM 40.7102 -87.3990 321° Northwest 441 507 35,300 -943 Descending FlightAware ADS-B
Fri 06:10:15 PM 40.7726 -87.4665 321° Northwest 438 504 34,700 -930 Descending FlightAware ADS-B
Fri 06:10:46 PM 40.8197 -87.5177 320° Northwest 443 510 34,200 -1,029 Descending FlightAware ADS-B
Fri 06:11:25 PM 40.8838 -87.5874 321° Northwest 448 516 33,500 -1,606 Descending FlightAware ADS-B
Fri 06:11:57 PM 40.9339 -87.6417 321° Northwest 441 507 32,300 -2,175 Descending FlightAware ADS-B
Fri 06:12:45 PM 41.0088 -87.7234 320° Northwest 423 487 30,600 -2,308 Descending FlightAware ADS-B
Fri 06:13:15 PM 41.0537 -87.7728 320° Northwest 419 482 29,300 -2,300 Descending FlightAware ADS-B
Fri 06:13:45 PM 41.0968 -87.8202 320° Northwest 407 468 28,300 -2,262 Descending FlightAware ADS-B
Fri 06:14:16 PM 41.1417 -87.8694 320° Northwest 403 464 27,000 -2,314 Descending FlightAware ADS-B
Fri 06:14:55 PM 41.1971 -87.9302 320° Northwest 391 450 25,600 -1,977 Descending FlightAware ADS-B
Fri 06:15:44 PM 41.2555 -87.9945 320° Northwest 382 440 24,100 -1,185 Descending FlightAware ADS-B
Fri 06:16:16 PM 41.3076 -88.0523 320° Northwest 384 442 24,000 -94 Descending FlightAware ADS-B
Fri 06:16:48 PM 41.3452 -88.0939 320° Northwest 383 441 24,000  Level FlightAware ADS-B
Fri 06:17:26 PM 41.3795 -88.1318 320° Northwest 382 440 24,000 -273 Level FlightAware ADS-B
Fri 06:18:16 PM 41.4700 -88.2345 316° Northwest 378 435 23,600 -1,024 Descending FlightAware ADS-B
Fri 06:18:48 PM 41.5036 -88.2854 312° West 375 432 22,600 -2,087 Descending FlightAware ADS-B
Fri 06:19:25 PM 41.5389 -88.3591 297° West 365 420 21,200 -2,080 Descending FlightAware ADS-B
Fri 06:20:03 PM 41.5630 -88.4345 288° West 353 406 20,000 -1,769 Descending FlightAware ADS-B
Fri 06:20:43 PM 41.5796 -88.5223 282° West 352 405 18,900 -1,714 Descending FlightAware ADS-B
Fri 06:21:34 PM 41.5967 -88.6282 282° West 339 390 17,400 -803 Descending FlightAware ADS-B
Fri 06:23:05 PM 41.6266 -88.8139 282° West 338 389 17,000 -182 Descending FlightAware ADS-B
Fri 06:23:46 PM 41.6392 -88.8939 282° West 335 386 17,000 -889 Level FlightAware ADS-B
Fri 06:24:26 PM 41.6525 -88.9778 282° West 330 380 15,800 -1,769 Descending FlightAware ADS-B
Fri 06:25:04 PM 41.6640 -89.0502 282° West 325 374 14,700 -1,671 Descending FlightAware ADS-B
Fri 06:25:45 PM 41.6767 -89.1332 282° West 315 362 13,600 -1,570 Descending FlightAware ADS-B
Fri 06:27:33 PM 41.7117 -89.2637 311° West 312 359 10,800 -1,538 Descending FlightAware ADS-B
Fri 06:28:21 PM 41.8235 -89.2428 23° Northeast 284 327 9,600 -1,680 Descending FlightAware ADS-B
Fri 06:28:48 PM 41.8559 -89.2250 23° Northeast 284 327 8,700 -1,636 Descending FlightAware ADS-B
Fri 06:29:27 PM 41.8964 -89.2047 23° Northeast 287 330 7,800 -1,485 Descending Chicago Center
Fri 06:30:29 PM 41.9664 -89.1681 21° North 275 316 6,200 -1,645 Descending Chicago Center
Fri 06:31:31 PM 42.0361 -89.1347 20° North 266 306 4,400 -1,187 Descending Chicago Center
Fri 06:33:36 PM 42.1458 -89.0183 38° Northeast 244 281 2,500 -674 Descending Chicago Center
Fri 06:34:38 PM 42.1878 -88.9917 25° Northeast 208 239 2,300 -145 Descending Chicago Center
Fri 06:35:40 PM 42.2381 -89.0194 338° Northwest 207 238 2,200 -97 Descending Chicago Center

Login

Don't have an account? Register now (free) for customized features, flight alerts, and more!